Terminal Aerodrome Forecast
Issued by NWS Wakefield, VA

Home | Current Version | Previous Version | Text Only | Print | Product List | Glossary On
Versions: 1 2 3 4 5 6 7 8 9 10 11 12 13 14 15
000
FTUS41 KAKQ 311700
TAFECG
TAF
KECG 311722Z 3118/0118 33012KT P6SM SCT250
     FM312100 28006KT P6SM SKC
     FM010000 22003KT P6SM BKN250
     FM011200 23006KT P6SM BKN120=

USA.gov is the U.S. government's official web portal to all federal, state and local government web resources and services.